New Century — V7GF8 — position and weather

sailwx.info

Track history (hours):
 
Tides and Currents Weather Stations Pressure Air Temp Water Temp Dewpoint Dewpoint Depression Visibility Wind Speed Wind Dir Waves Ship Positions

New Century

Last reported at 2017-Sep-04 11:44 UTC. Time now 2017-Sep-25 04:23 UTC.
Position N 01°16' E 104°08'.
Warning: this ship's position is 20 days out of date.

Length 228 m; draft 12.2 m.

Type: Tanker. MMSI: 538002085.

Date/timePositionNaut miles runAvg speedWind from/ knotsBaromVisibWave heightAir tempDewpointWater temp
2017-Sep-04 11:44N 01°16' E 104°08'311.6
2017-Sep-04 11:28N 01°15' E 104°05'511.1
2017-Sep-04 10:59N 01°14' E 103°60'611.4
2017-Sep-04 10:30N 01°12' E 103°54'511.0
2017-Sep-04 10:00N 01°10' E 103°50'510.6
2017-Sep-04 09:30N 01°07' E 103°45'611.7
2017-Sep-04 09:00N 01°04' E 103°40'510.8
2017-Sep-04 08:30N 01°04' E 103°35'510.9
2017-Sep-04 08:00N 01°07' E 103°31'611.8
2017-Sep-04 07:30N 01°11' E 103°35'4 8.7
2017-Sep-04 07:00N 01°11' E 103°40'2 3.6
2017-Sep-04 06:29N 01°11' E 103°41'0 0.1
2017-Sep-04 05:59N 01°11' E 103°41'0 0.0
2017-Sep-04 05:26N 01°11' E 103°41'0 0.1
2017-Sep-04 04:59N 01°11' E 103°41'0 0.1
2017-Sep-04 04:29N 01°11' E 103°42'0 0.0
2017-Sep-04 03:56N 01°11' E 103°42'0 0.1
2017-Sep-04 03:26N 01°11' E 103°41'0 0.1
2017-Sep-04 02:59N 01°11' E 103°42'0 0.0
2017-Sep-04 02:26N 01°11' E 103°42'0 0.0
2017-Sep-04 01:59N 01°11' E 103°42'0 0.1
2017-Sep-04 01:26N 01°11' E 103°42'0 0.0
2017-Sep-04 00:56N 01°11' E 103°42'0 0.0
2017-Sep-03 17:56N 01°11' E 103°42'0 0.3
2017-Sep-03 17:28N 01°11' E 103°41'1 1.7
2017-Sep-03 17:00N 01°12' E 103°42'2 4.0
2017-Sep-03 16:30N 01°12' E 103°40'3 5.3
2017-Sep-03 15:59N 01°12' E 103°37'7 6.2
2017-Sep-03 14:49N 01°10' E 103°30'  
Track history (hours):
 
Tides and Currents Weather Stations Pressure Air Temp Water Temp Dewpoint Dewpoint Depression Visibility Wind Speed Wind Dir Waves Ship Positions

New Century

Last reported at 2017-Sep-04 11:44 UTC. Time now 2017-Sep-25 04:23 UTC.
Position N 01°16' E 104°08'.
Warning: this ship's position is 20 days out of date.

Length 228 m; draft 12.2 m.

Type: Tanker. MMSI: 538002085.

Date/timePositionNaut miles runAvg speedWind from/ knotsBaromVisibWave heightAir tempDewpointWater temp
2017-Sep-04 11:44N 01°16' E 104°08'311.6
2017-Sep-04 11:28N 01°15' E 104°05'511.1
2017-Sep-04 10:59N 01°14' E 103°60'611.4
2017-Sep-04 10:30N 01°12' E 103°54'511.0
2017-Sep-04 10:00N 01°10' E 103°50'510.6
2017-Sep-04 09:30N 01°07' E 103°45'611.7
2017-Sep-04 09:00N 01°04' E 103°40'510.8
2017-Sep-04 08:30N 01°04' E 103°35'510.9
2017-Sep-04 08:00N 01°07' E 103°31'611.8
2017-Sep-04 07:30N 01°11' E 103°35'4 8.7
2017-Sep-04 07:00N 01°11' E 103°40'2 3.6
2017-Sep-04 06:29N 01°11' E 103°41'0 0.1
2017-Sep-04 05:59N 01°11' E 103°41'0 0.0
2017-Sep-04 05:26N 01°11' E 103°41'0 0.1
2017-Sep-04 04:59N 01°11' E 103°41'0 0.1
2017-Sep-04 04:29N 01°11' E 103°42'0 0.0
2017-Sep-04 03:56N 01°11' E 103°42'0 0.1
2017-Sep-04 03:26N 01°11' E 103°41'0 0.1
2017-Sep-04 02:59N 01°11' E 103°42'0 0.0
2017-Sep-04 02:26N 01°11' E 103°42'0 0.0
2017-Sep-04 01:59N 01°11' E 103°42'0 0.1
2017-Sep-04 01:26N 01°11' E 103°42'0 0.0
2017-Sep-04 00:56N 01°11' E 103°42'0 0.0
2017-Sep-03 17:56N 01°11' E 103°42'0 0.3
2017-Sep-03 17:28N 01°11' E 103°41'1 1.7
2017-Sep-03 17:00N 01°12' E 103°42'2 4.0
2017-Sep-03 16:30N 01°12' E 103°40'3 5.3
2017-Sep-03 15:59N 01°12' E 103°37'7 6.2
2017-Sep-03 14:49N 01°10' E 103°30'  

Dump ship's entire track history